Time;durP1;ratioP1;P1;durP2;ratioP2;P2;SDS_P1;SDS_P2;PMS_P1;PMS_P2;Temp;Humidity;BMP_temperature;BMP_pressure;BME280_temperature;BME280_humidity;BME280_pressure;Samples;Min_cycle;Max_cycle;Signal;HPM_P1;HPM_P2
2024/02/25 00:01:37;;;;;;;2.67;1.50;;;6.20;83.10;;;;;;9176741;19;20603;-69
2024/02/25 00:04:42;;;;;;;6.32;1.98;;;6.20;83.20;;;;;;9176932;19;20018;-69
2024/02/25 00:07:50;;;;;;;5.07;2.10;;;6.20;83.40;;;;;;9176505;19;20011;-69
2024/02/25 00:10:55;;;;;;;4.82;1.80;;;6.20;83.30;;;;;;9178292;19;20369;-69
2024/02/25 00:14:03;;;;;;;4.13;1.38;;;6.20;83.40;;;;;;9176803;19;20595;-67
2024/02/25 00:17:11;;;;;;;2.22;1.33;;;6.30;83.60;;;;;;9178160;19;20029;-69
2024/02/25 00:20:18;;;;;;;3.00;1.45;;;6.30;83.60;;;;;;9173271;19;20381;-68
2024/02/25 00:23:24;;;;;;;3.63;1.60;;;6.30;83.30;;;;;;9175040;19;20011;-68
2024/02/25 00:26:36;;;;;;;8.20;1.90;;;6.30;83.60;;;;;;9176040;19;20021;-69
2024/02/25 00:29:42;;;;;;;3.13;1.55;;;6.40;84.20;;;;;;9180390;19;20482;-68
2024/02/25 00:32:52;;;;;;;5.82;2.00;;;6.30;83.30;;;;;;9178235;19;20014;-68
2024/02/25 00:35:57;;;;;;;4.88;1.63;;;6.30;83.40;;;;;;9179285;19;20015;-69
2024/02/25 00:39:05;;;;;;;3.00;1.48;;;6.30;83.20;;;;;;9175289;19;20464;-67
2024/02/25 00:42:11;;;;;;;6.13;1.63;;;6.30;83.20;;;;;;9175318;19;20015;-69
2024/02/25 00:45:18;;;;;;;3.03;1.70;;;6.30;83.20;;;;;;9176058;19;20021;-69
2024/02/25 00:48:27;;;;;;;1.50;1.23;;;6.30;83.20;;;;;;9177083;19;20019;-69
2024/02/25 00:51:34;;;;;;;5.50;1.48;;;6.30;83.20;;;;;;9176180;19;20916;-68
2024/02/25 00:54:43;;;;;;;5.38;1.65;;;6.30;83.20;;;;;;9174013;19;20491;-68
2024/02/25 00:57:51;;;;;;;3.28;1.83;;;6.30;83.20;;;;;;9171307;19;20018;-68
2024/02/25 01:00:58;;;;;;;6.53;1.80;;;6.30;83.20;;;;;;9172836;19;20018;-68
2024/02/25 01:04:08;;;;;;;3.90;1.65;;;6.40;83.20;;;;;;9174068;19;20106;-68
2024/02/25 01:07:13;;;;;;;4.63;1.40;;;6.40;83.80;;;;;;9175139;19;20380;-68
2024/02/25 01:10:21;;;;;;;9.05;1.70;;;6.30;83.30;;;;;;9172279;19;20109;-68
2024/02/25 01:13:26;;;;;;;2.22;1.23;;;6.30;83.10;;;;;;9175230;19;20055;-68
2024/02/25 01:16:34;;;;;;;1.67;1.25;;;6.40;83.20;;;;;;9173799;19;20018;-68
2024/02/25 01:19:42;;;;;;;5.30;1.35;;;6.40;83.20;;;;;;9170020;19;20025;-68
2024/02/25 01:22:50;;;;;;;2.45;1.38;;;6.40;83.20;;;;;;9173462;19;20022;-67
2024/02/25 01:25:55;;;;;;;4.68;1.35;;;6.50;83.30;;;;;;9163967;19;20451;-68
2024/02/25 01:29:04;;;;;;;3.00;1.25;;;6.40;83.20;;;;;;9171673;19;20021;-69
2024/02/25 01:32:09;;;;;;;4.45;1.50;;;6.50;83.30;;;;;;9173599;19;20769;-69
2024/02/25 01:35:20;;;;;;;5.38;1.50;;;6.50;83.20;;;;;;9173387;19;20015;-68
2024/02/25 01:38:25;;;;;;;3.90;1.50;;;6.50;83.30;;;;;;9173076;19;20023;-69
2024/02/25 01:41:33;;;;;;;3.17;1.48;;;6.50;83.30;;;;;;9173973;19;20024;-69
2024/02/25 01:44:56;;;;;;;3.15;1.58;;;6.50;83.20;;;;;;9172516;19;20022;-69
2024/02/25 01:48:04;;;;;;;5.93;1.40;;;6.50;83.10;;;;;;9172641;19;20472;-68
2024/02/25 01:51:21;;;;;;;1.67;1.35;;;6.60;83.20;;;;;;9171641;19;20022;-69
2024/02/25 01:54:29;;;;;;;4.18;1.45;;;6.50;83.10;;;;;;9173809;19;20022;-67
2024/02/25 01:57:35;;;;;;;2.72;1.10;;;6.60;83.30;;;;;;9167543;19;20018;-69
2024/02/25 02:00:43;;;;;;;3.45;1.85;;;6.60;83.10;;;;;;9169937;19;20160;-69
2024/02/25 02:03:56;;;;;;;2.83;1.35;;;6.60;83.30;;;;;;9174646;19;20454;-68
2024/02/25 02:07:06;;;;;;;1.63;1.20;;;6.60;83.20;;;;;;9172092;19;20018;-68
2024/02/25 02:10:13;;;;;;;0.95;0.90;;;6.60;83.10;;;;;;9171768;19;20033;-69
2024/02/25 02:13:21;;;;;;;1.75;0.90;;;6.60;83.30;;;;;;9171432;19;20014;-69
2024/02/25 02:16:28;;;;;;;8.77;1.25;;;6.60;83.20;;;;;;9170887;19;20018;-70
2024/02/25 02:19:34;;;;;;;7.68;1.63;;;6.60;83.20;;;;;;9171371;19;20014;-70
2024/02/25 02:22:45;;;;;;;3.00;0.95;;;6.60;83.20;;;;;;9171493;19;20021;-69
2024/02/25 02:25:50;;;;;;;7.38;1.40;;;6.60;83.50;;;;;;9172210;19;20014;-68
2024/02/25 02:28:58;;;;;;;3.55;1.58;;;6.60;83.30;;;;;;9166834;19;20022;-69
2024/02/25 02:32:03;;;;;;;3.60;1.45;;;6.50;83.20;;;;;;9171690;19;21668;-69
2024/02/25 02:35:11;;;;;;;2.92;1.50;;;6.60;83.30;;;;;;9173246;19;20018;-68
2024/02/25 02:38:21;;;;;;;3.08;1.88;;;6.60;83.30;;;;;;9169721;19;20761;-69
2024/02/25 02:41:29;;;;;;;3.58;1.20;;;6.50;83.20;;;;;;9168543;19;20049;-70
2024/02/25 02:44:36;;;;;;;5.22;1.02;;;6.60;83.30;;;;;;9171595;19;20045;-69
2024/02/25 02:47:43;;;;;;;4.70;1.33;;;6.50;83.40;;;;;;9169751;19;20014;-70
2024/02/25 02:50:49;;;;;;;2.78;1.50;;;6.50;83.30;;;;;;9178621;19;20033;-68
2024/02/25 02:53:59;;;;;;;4.20;1.13;;;6.50;83.30;;;;;;9179664;19;20019;-68
2024/02/25 02:57:05;;;;;;;2.70;1.60;;;6.50;83.30;;;;;;9181250;19;20486;-68
2024/02/25 03:00:14;;;;;;;3.85;1.25;;;6.50;83.50;;;;;;9175559;19;20025;-70
2024/02/25 03:03:20;;;;;;;3.45;1.10;;;6.50;83.30;;;;;;9180126;19;20358;-69
2024/02/25 03:06:27;;;;;;;5.20;1.27;;;6.50;83.50;;;;;;9180020;19;20014;-70
2024/02/25 03:09:36;;;;;;;3.47;1.50;;;6.50;83.70;;;;;;9176452;19;20010;-69
2024/02/25 03:12:43;;;;;;;3.05;1.25;;;6.50;83.70;;;;;;9180742;19;20026;-69
2024/02/25 03:15:48;;;;;;;2.55;1.20;;;6.50;83.80;;;;;;9178421;19;20026;-69
2024/02/25 03:18:56;;;;;;;4.90;1.38;;;6.50;83.70;;;;;;9180639;19;20018;-69
2024/02/25 03:22:02;;;;;;;4.43;1.25;;;6.50;83.70;;;;;;9175356;19;20018;-69
2024/02/25 03:25:13;;;;;;;5.97;1.50;;;6.50;83.90;;;;;;9178303;19;20014;-69
2024/02/25 03:28:18;;;;;;;2.78;1.38;;;6.50;83.80;;;;;;9178678;19;20022;-69
2024/02/25 03:31:26;;;;;;;2.00;1.35;;;6.50;83.90;;;;;;9178751;19;20018;-69
2024/02/25 03:34:31;;;;;;;3.08;1.38;;;6.50;83.80;;;;;;9178681;19;20022;-69
2024/02/25 03:37:39;;;;;;;3.90;1.42;;;6.50;83.80;;;;;;9179035;19;20017;-69
2024/02/25 03:40:47;;;;;;;3.28;1.30;;;6.50;83.90;;;;;;9178330;19;20018;-69
2024/02/25 03:43:55;;;;;;;1.23;1.10;;;6.70;84.00;;;;;;9179253;19;20018;-69
2024/02/25 03:47:00;;;;;;;3.75;1.55;;;6.50;83.80;;;;;;9176457;19;20019;-69
2024/02/25 03:50:11;;;;;;;1.70;1.38;;;6.60;83.90;;;;;;9178973;19;20021;-69
2024/02/25 03:53:16;;;;;;;4.65;1.33;;;6.60;84.00;;;;;;9176758;19;20063;-69
2024/02/25 03:56:27;;;;;;;1.65;1.20;;;6.60;84.00;;;;;;9177143;19;20037;-68
2024/02/25 03:59:32;;;;;;;1.48;1.20;;;6.60;84.00;;;;;;9172996;19;20387;-69
2024/02/25 04:02:40;;;;;;;3.08;1.40;;;6.60;84.00;;;;;;9177485;19;20019;-70
2024/02/25 04:05:46;;;;;;;2.03;1.10;;;6.60;84.00;;;;;;9178246;19;20483;-70
2024/02/25 04:08:54;;;;;;;3.25;1.38;;;6.70;84.10;;;;;;9176090;19;20021;-69
2024/02/25 04:12:02;;;;;;;1.33;1.08;;;6.70;84.00;;;;;;9173252;19;20019;-69
2024/02/25 04:15:11;;;;;;;1.52;1.05;;;6.70;84.10;;;;;;9177878;19;20007;-69
2024/02/25 04:18:18;;;;;;;2.10;1.15;;;6.70;84.30;;;;;;9177285;19;20010;-69
2024/02/25 04:21:26;;;;;;;2.05;1.38;;;6.70;84.10;;;;;;9175597;19;20109;-70
2024/02/25 04:24:32;;;;;;;2.67;1.63;;;6.90;84.30;;;;;;9176676;19;20014;-69
2024/02/25 04:27:42;;;;;;;1.48;1.00;;;6.70;84.00;;;;;;9174321;19;20018;-68
2024/02/25 04:30:48;;;;;;;1.88;1.30;;;6.70;84.20;;;;;;9176542;19;20026;-69
2024/02/25 04:33:55;;;;;;;6.70;1.27;;;6.70;84.10;;;;;;9176563;19;20011;-68
2024/02/25 04:37:01;;;;;;;1.05;0.93;;;6.80;84.80;;;;;;9177234;19;20013;-68
2024/02/25 04:40:10;;;;;;;5.22;1.25;;;6.80;84.10;;;;;;9177270;19;20644;-68
2024/02/25 06:47:15;;;;;;;1.92;1.20;;;5.30;84.50;;;;;;9064848;19;2961207;-70
2024/02/25 06:50:23;;;;;;;1.27;1.17;;;6.00;88.30;;;;;;9217798;19;20034;-68
2024/02/25 06:53:30;;;;;;;1.25;1.02;;;6.00;87.60;;;;;;9217751;19;20117;-67
2024/02/25 06:56:38;;;;;;;1.30;1.20;;;6.20;87.20;;;;;;9215294;19;20033;-67
2024/02/25 06:59:44;;;;;;;1.80;1.38;;;6.20;86.90;;;;;;9217260;19;20007;-67
2024/02/25 07:02:55;;;;;;;1.20;1.10;;;6.30;86.70;;;;;;9217310;19;20341;-68
2024/02/25 07:06:00;;;;;;;1.65;1.40;;;6.40;86.60;;;;;;9219696;19;20022;-69
2024/02/25 07:09:08;;;;;;;2.45;1.70;;;6.40;86.40;;;;;;9218271;19;20018;-67
2024/02/25 07:12:14;;;;;;;2.28;1.30;;;6.50;86.30;;;;;;9217869;19;20022;-68
2024/02/25 07:15:21;;;;;;;4.00;1.10;;;6.50;86.20;;;;;;9214376;19;20375;-68
2024/02/25 07:18:29;;;;;;;1.58;1.48;;;6.60;86.30;;;;;;9219474;19;20025;-67
2024/02/25 07:21:37;;;;;;;1.95;1.30;;;6.60;86.10;;;;;;9217181;19;20785;-67
2024/02/25 07:24:43;;;;;;;2.13;1.10;;;6.70;86.10;;;;;;9214428;19;20420;-67
2024/02/25 07:27:50;;;;;;;2.30;1.30;;;6.70;86.10;;;;;;9215695;19;20025;-69
2024/02/25 07:30:56;;;;;;;1.88;1.40;;;6.70;86.00;;;;;;9218776;19;20481;-68
2024/02/25 07:34:07;;;;;;;1.10;1.10;;;6.70;86.00;;;;;;9216967;19;20010;-67
2024/02/25 07:37:13;;;;;;;1.20;1.10;;;6.80;86.00;;;;;;9213085;19;20033;-67
2024/02/25 07:40:21;;;;;;;2.25;1.27;;;6.80;86.00;;;;;;9210978;19;20014;-68
2024/02/25 07:43:26;;;;;;;2.55;1.30;;;6.80;85.90;;;;;;9218330;19;20776;-68
2024/02/25 07:46:34;;;;;;;2.88;1.08;;;6.80;86.00;;;;;;9203350;19;20025;-68
2024/02/25 07:49:42;;;;;;;2.67;1.60;;;6.90;85.90;;;;;;9183226;19;20014;-68
2024/02/25 07:52:50;;;;;;;1.95;1.30;;;6.90;85.90;;;;;;9182997;19;20018;-68
2024/02/25 07:55:55;;;;;;;3.22;1.20;;;6.90;85.90;;;;;;9181691;19;20022;-68
2024/02/25 07:59:03;;;;;;;1.42;1.10;;;7.00;85.90;;;;;;9183154;19;20498;-68
2024/02/25 08:02:08;;;;;;;1.50;1.40;;;7.00;86.00;;;;;;9183372;19;20018;-68
2024/02/25 08:05:19;;;;;;;1.40;1.30;;;7.00;85.90;;;;;;9182866;19;20014;-68
2024/02/25 08:08:24;;;;;;;1.27;1.17;;;7.00;85.90;;;;;;9181889;19;20527;-68
2024/02/25 08:11:32;;;;;;;2.38;1.50;;;7.10;86.00;;;;;;9179318;19;20014;-68
2024/02/25 08:14:37;;;;;;;2.38;0.95;;;7.10;85.90;;;;;;9179268;19;20014;-68
2024/02/25 08:17:45;;;;;;;1.70;1.30;;;7.10;85.90;;;;;;9179155;19;20015;-68
2024/02/25 08:20:53;;;;;;;1.27;1.17;;;7.20;86.00;;;;;;9180751;19;20023;-68
2024/02/25 08:24:01;;;;;;;3.35;2.00;;;7.20;86.00;;;;;;9180731;19;20021;-68
2024/02/25 08:27:07;;;;;;;1.50;1.40;;;7.20;86.00;;;;;;9179070;19;20347;-67
2024/02/25 08:30:15;;;;;;;5.20;1.67;;;7.30;86.00;;;;;;9180315;19;20026;-68
2024/02/25 08:33:20;;;;;;;2.22;1.63;;;7.30;86.10;;;;;;9176791;19;20014;-68
2024/02/25 08:36:31;;;;;;;2.78;1.73;;;7.30;86.10;;;;;;9178268;19;20376;-69
2024/02/25 08:39:36;;;;;;;2.30;1.45;;;7.40;86.10;;;;;;9174971;19;20018;-68
2024/02/25 08:42:44;;;;;;;1.75;1.38;;;7.40;86.10;;;;;;9180172;19;20014;-68
2024/02/25 08:45:49;;;;;;;2.20;1.90;;;7.50;86.10;;;;;;9177955;19;20113;-68
2024/02/25 08:48:57;;;;;;;1.58;1.48;;;7.50;86.00;;;;;;9180547;19;20021;-68
2024/02/25 08:52:05;;;;;;;5.10;1.60;;;7.50;85.90;;;;;;9180463;19;20025;-69
2024/02/25 08:55:13;;;;;;;1.50;1.40;;;7.60;86.00;;;;;;9177719;19;20018;-68
2024/02/25 08:58:20;;;;;;;2.97;2.03;;;7.60;86.10;;;;;;9171549;19;20526;-68
2024/02/25 09:01:28;;;;;;;1.50;1.40;;;7.70;86.10;;;;;;9175203;19;20387;-67
2024/02/25 09:04:33;;;;;;;2.63;1.58;;;7.70;86.10;;;;;;9176112;19;20018;-68
2024/02/25 09:07:44;;;;;;;3.13;1.88;;;7.70;86.10;;;;;;9178969;19;20112;-68
2024/02/25 09:10:49;;;;;;;3.15;1.77;;;7.80;86.10;;;;;;9178302;19;20014;-67
2024/02/25 09:13:57;;;;;;;4.20;1.77;;;7.80;86.10;;;;;;9180038;19;20022;-68
2024/02/25 09:17:02;;;;;;;3.78;2.10;;;7.90;86.10;;;;;;9178712;19;20018;-67
2024/02/25 09:20:11;;;;;;;4.05;2.00;;;7.90;86.00;;;;;;9178683;19;20010;-69
2024/02/25 09:23:19;;;;;;;1.90;1.63;;;7.90;86.00;;;;;;9177315;19;20014;-68
2024/02/25 09:26:27;;;;;;;2.05;1.60;;;7.90;86.00;;;;;;9177884;19;20033;-69
2024/02/25 09:29:42;;;;;;;2.40;1.70;;;8.00;86.00;;;;;;9175556;19;20029;-68
2024/02/25 09:32:50;;;;;;;1.70;1.60;;;8.00;85.90;;;;;;9177047;19;20015;-67
2024/02/25 09:35:55;;;;;;;1.67;1.35;;;8.00;86.50;;;;;;9177186;19;20097;-69
2024/02/25 09:39:06;;;;;;;2.53;1.85;;;8.00;85.80;;;;;;9167854;19;20019;-68
2024/02/25 09:42:11;;;;;;;2.28;1.40;;;8.00;85.80;;;;;;9173336;19;20014;-68
2024/02/25 09:45:23;;;;;;;1.88;1.50;;;8.00;85.80;;;;;;9177692;19;20018;-69
2024/02/25 09:48:29;;;;;;;2.90;1.70;;;8.10;85.90;;;;;;9176720;19;20007;-69
2024/02/25 09:51:38;;;;;;;5.82;1.70;;;8.10;85.90;;;;;;9176764;19;20025;-67
2024/02/25 09:54:48;;;;;;;2.60;1.95;;;8.20;85.90;;;;;;9177396;19;20018;-67
2024/02/25 09:57:55;;;;;;;2.45;1.88;;;8.20;86.00;;;;;;9174604;19;20030;-67
2024/02/25 10:01:01;;;;;;;2.65;1.70;;;8.30;86.00;;;;;;9178123;19;20018;-68
2024/02/25 10:04:09;;;;;;;3.75;2.00;;;8.30;85.90;;;;;;9177465;19;20015;-69
2024/02/25 10:07:16;;;;;;;3.63;1.67;;;8.30;85.90;;;;;;9176558;19;20018;-68
2024/02/25 10:10:27;;;;;;;3.45;1.80;;;8.40;85.90;;;;;;9175130;19;20043;-68
2024/02/25 10:13:34;;;;;;;3.13;1.67;;;8.40;85.80;;;;;;9177797;19;20086;-67
2024/02/25 10:16:41;;;;;;;2.95;2.00;;;8.50;85.80;;;;;;9175633;19;20014;-67
2024/02/25 10:19:56;;;;;;;3.40;2.00;;;8.50;85.70;;;;;;9177930;19;20018;-67
2024/02/25 10:23:24;;;;;;;2.78;2.08;;;8.50;85.60;;;;;;9174948;19;20486;-67
2024/02/25 10:26:32;;;;;;;4.50;1.63;;;8.50;85.60;;;;;;9176013;19;20375;-68
2024/02/25 10:29:54;;;;;;;1.70;1.60;;;8.50;85.60;;;;;;9175566;19;20470;-68
2024/02/25 10:33:15;;;;;;;5.95;2.15;;;8.50;85.50;;;;;;9173322;19;20047;-69
2024/02/25 10:36:25;;;;;;;1.45;1.20;;;8.50;85.60;;;;;;9174920;19;20094;-67
2024/02/25 10:39:31;;;;;;;2.05;1.60;;;8.50;86.20;;;;;;9165940;19;20651;-67
2024/02/25 10:42:46;;;;;;;4.15;2.03;;;8.50;85.60;;;;;;9175259;19;20014;-68
2024/02/25 10:45:54;;;;;;;2.20;2.00;;;8.50;85.70;;;;;;9174819;19;20027;-67
2024/02/25 10:49:05;;;;;;;2.40;1.77;;;8.60;85.70;;;;;;9176019;19;20479;-67
2024/02/25 10:52:13;;;;;;;3.67;1.98;;;8.60;85.80;;;;;;9176511;19;20010;-67
2024/02/25 10:55:22;;;;;;;1.90;1.80;;;8.60;85.70;;;;;;9171188;19;20014;-67
2024/02/25 10:58:32;;;;;;;2.65;1.85;;;8.70;85.70;;;;;;9173733;19;20019;-67
2024/02/25 11:01:40;;;;;;;1.85;1.65;;;8.70;85.60;;;;;;9176006;19;20414;-69
2024/02/25 11:04:47;;;;;;;2.83;1.67;;;8.70;85.50;;;;;;9175077;19;20011;-65
2024/02/25 11:07:54;;;;;;;2.45;1.75;;;8.70;85.50;;;;;;9175659;19;20018;-67
2024/02/25 11:11:00;;;;;;;1.90;1.63;;;8.70;85.50;;;;;;9173873;19;20036;-68
2024/02/25 11:14:14;;;;;;;2.33;1.70;;;8.70;85.50;;;;;;9175695;19;20026;-67
2024/02/25 11:17:24;;;;;;;6.80;2.00;;;8.70;85.40;;;;;;9174734;19;20021;-68
2024/02/25 11:20:34;;;;;;;2.70;1.90;;;8.70;85.40;;;;;;9172963;19;20015;-68
2024/02/25 11:23:47;;;;;;;4.25;2.88;;;8.70;85.40;;;;;;9183523;19;20018;-67
2024/02/25 11:26:58;;;;;;;3.17;2.25;;;8.70;85.40;;;;;;9184437;19;20661;-67
2024/02/25 11:30:19;;;;;;;3.85;2.40;;;8.70;85.50;;;;;;9183872;19;20007;-67
2024/02/25 11:33:41;;;;;;;2.42;2.17;;;8.70;85.70;;;;;;9184094;19;20105;-67
2024/02/25 11:36:50;;;;;;;3.53;2.33;;;8.80;85.90;;;;;;9182718;19;20014;-67
2024/02/25 11:39:57;;;;;;;3.90;2.25;;;8.90;86.00;;;;;;9179001;19;20486;-68
2024/02/25 11:43:03;;;;;;;3.10;2.30;;;8.90;86.00;;;;;;9183637;19;20014;-68
2024/02/25 11:46:14;;;;;;;6.75;2.63;;;9.00;86.00;;;;;;9183734;19;20490;-67
2024/02/25 11:49:19;;;;;;;3.08;2.22;;;9.00;85.90;;;;;;9184337;19;20674;-68
2024/02/25 11:52:27;;;;;;;1.52;1.17;;;9.10;85.90;;;;;;9184076;19;20466;-67
2024/02/25 11:55:33;;;;;;;0.90;0.90;;;9.20;85.70;;;;;;9182293;19;20011;-68
2024/02/25 11:58:40;;;;;;;1.05;0.90;;;9.10;85.50;;;;;;9181661;19;20038;-68
2024/02/25 12:01:50;;;;;;;1.33;1.13;;;9.10;85.30;;;;;;9183457;19;20014;-68
2024/02/25 12:04:59;;;;;;;2.15;1.25;;;9.10;85.20;;;;;;9182778;19;20348;-68
2024/02/25 12:08:05;;;;;;;3.20;1.45;;;9.10;85.10;;;;;;9182131;19;20348;-68
2024/02/25 12:11:13;;;;;;;1.13;1.02;;;9.10;85.00;;;;;;9182675;19;20423;-68
2024/02/25 12:14:22;;;;;;;1.67;1.27;;;9.00;84.80;;;;;;9183920;19;20014;-68
2024/02/25 12:17:33;;;;;;;1.58;1.10;;;9.00;84.80;;;;;;9180050;19;20359;-68
2024/02/25 12:20:40;;;;;;;2.55;1.20;;;8.90;84.60;;;;;;9182676;19;20014;-67
2024/02/25 12:23:47;;;;;;;2.63;1.20;;;8.90;84.80;;;;;;9183314;19;20018;-68
2024/02/25 12:26:54;;;;;;;1.98;1.20;;;8.90;85.40;;;;;;9181199;19;20015;-68
2024/02/25 12:30:03;;;;;;;1.83;1.40;;;8.90;84.80;;;;;;9182415;19;20023;-67
2024/02/25 12:33:12;;;;;;;2.70;1.40;;;8.80;84.80;;;;;;9182004;19;20371;-67
2024/02/25 12:36:20;;;;;;;3.00;1.80;;;8.80;84.70;;;;;;9181978;19;20355;-68
2024/02/25 12:39:28;;;;;;;4.15;1.85;;;8.80;84.80;;;;;;9174469;19;20558;-68
2024/02/25 12:42:40;;;;;;;3.92;2.03;;;8.80;84.70;;;;;;9180907;19;20019;-67
2024/02/25 12:45:46;;;;;;;4.35;2.20;;;8.80;84.80;;;;;;9180886;19;20007;-68
2024/02/25 12:48:57;;;;;;;3.92;2.35;;;8.80;84.90;;;;;;9180143;19;20022;-68
2024/02/25 12:52:03;;;;;;;3.67;1.95;;;8.80;85.00;;;;;;9179711;19;20014;-67
2024/02/25 12:55:11;;;;;;;7.95;2.30;;;8.80;85.00;;;;;;9180012;19;20353;-69
2024/02/25 12:58:18;;;;;;;2.47;2.10;;;8.90;85.10;;;;;;9179479;19;20511;-68
2024/02/25 13:01:25;;;;;;;3.03;2.05;;;8.90;85.20;;;;;;9180936;19;20018;-67
2024/02/25 13:04:33;;;;;;;3.83;2.33;;;9.00;85.30;;;;;;9181005;19;20010;-67
2024/02/25 13:07:42;;;;;;;3.75;2.45;;;9.00;85.30;;;;;;9180436;19;20019;-67
2024/02/25 13:10:47;;;;;;;7.68;2.90;;;9.10;85.30;;;;;;9179277;19;20014;-70
2024/02/25 13:13:55;;;;;;;4.60;2.58;;;9.10;85.40;;;;;;9178771;19;20041;-68
2024/02/25 13:17:01;;;;;;;4.18;2.50;;;9.20;85.30;;;;;;9180180;19;20015;-67
2024/02/25 13:20:14;;;;;;;4.50;2.85;;;9.20;85.30;;;;;;9175624;19;20809;-67
2024/02/25 13:23:20;;;;;;;3.97;2.63;;;9.30;85.30;;;;;;9180054;19;20554;-67
2024/02/25 13:26:30;;;;;;;4.45;2.95;;;9.30;85.20;;;;;;9179316;19;20478;-66
2024/02/25 13:29:36;;;;;;;3.90;2.42;;;9.40;85.20;;;;;;9179184;19;20014;-67
2024/02/25 13:32:43;;;;;;;3.15;2.58;;;9.40;85.10;;;;;;9178517;19;20007;-68
2024/02/25 13:35:52;;;;;;;6.68;2.58;;;9.50;85.30;;;;;;9179422;19;20017;-69
2024/02/25 13:39:00;;;;;;;7.35;3.10;;;9.50;85.20;;;;;;9172129;19;20483;-68
2024/02/25 13:42:06;;;;;;;5.15;2.50;;;9.60;85.30;;;;;;9179216;19;20104;-67
2024/02/25 13:45:14;;;;;;;4.15;2.30;;;9.60;85.10;;;;;;9178291;19;20025;-67
2024/02/25 13:48:20;;;;;;;4.22;2.20;;;9.70;85.00;;;;;;9179195;19;20025;-68
2024/02/25 13:51:31;;;;;;;7.68;2.83;;;9.70;84.90;;;;;;9178029;19;20017;-67
2024/02/25 13:54:36;;;;;;;4.90;2.47;;;9.80;84.90;;;;;;9178234;19;20021;-67
2024/02/25 13:57:44;;;;;;;5.13;2.58;;;9.80;84.90;;;;;;9177978;19;20017;-67
2024/02/25 14:00:50;;;;;;;5.28;2.47;;;9.80;84.60;;;;;;9175667;19;20017;-70
2024/02/25 14:03:57;;;;;;;4.93;2.40;;;9.80;84.60;;;;;;9178170;19;20014;-67
2024/02/25 14:07:07;;;;;;;4.78;2.40;;;9.90;84.60;;;;;;9179147;19;20018;-67
2024/02/25 14:10:17;;;;;;;5.50;2.53;;;9.90;84.60;;;;;;9175790;19;20017;-68
2024/02/25 14:13:22;;;;;;;4.68;2.30;;;10.00;84.70;;;;;;9178402;19;20021;-68
2024/02/25 14:16:30;;;;;;;3.28;2.13;;;10.00;84.70;;;;;;9177903;19;20021;-67
2024/02/25 14:19:36;;;;;;;7.15;2.15;;;10.00;84.70;;;;;;9176899;19;20010;-67
2024/02/25 14:22:46;;;;;;;3.70;2.00;;;10.10;84.70;;;;;;9176887;19;20022;-68
2024/02/25 14:25:52;;;;;;;3.05;2.13;;;10.10;84.50;;;;;;9176517;19;20371;-67
2024/02/25 14:28:59;;;;;;;4.57;1.75;;;10.10;84.40;;;;;;9177837;19;20355;-67
2024/02/25 14:32:05;;;;;;;4.25;1.98;;;10.10;84.20;;;;;;9176692;19;20014;-67
2024/02/25 14:35:14;;;;;;;9.63;2.25;;;10.10;84.10;;;;;;9175227;19;20015;-68
2024/02/25 14:38:22;;;;;;;6.70;2.38;;;10.10;84.10;;;;;;9173329;19;20022;-67
2024/02/25 14:41:29;;;;;;;5.97;2.80;;;10.10;84.00;;;;;;9171284;19;20025;-67
2024/02/25 14:44:35;;;;;;;7.25;3.72;;;10.10;84.00;;;;;;9176573;19;20648;-67
2024/02/25 14:47:42;;;;;;;5.38;2.85;;;10.20;84.00;;;;;;9177064;19;20539;-67
2024/02/25 14:50:48;;;;;;;3.78;2.13;;;10.20;84.00;;;;;;9176828;19;20051;-68
2024/02/25 14:53:58;;;;;;;6.68;1.83;;;10.20;83.90;;;;;;9176120;19;20480;-67
2024/02/25 14:57:08;;;;;;;3.30;1.80;;;10.20;83.80;;;;;;9181352;19;20014;-67
2024/02/25 15:00:17;;;;;;;2.40;1.60;;;10.20;83.80;;;;;;9181729;19;20015;-67
2024/02/25 15:03:23;;;;;;;3.30;1.70;;;10.20;83.80;;;;;;9184959;19;20010;-68
2024/02/25 15:06:31;;;;;;;7.45;2.58;;;10.30;83.80;;;;;;9183113;19;20011;-67
2024/02/25 15:09:40;;;;;;;4.93;2.10;;;10.30;83.80;;;;;;9185135;19;20011;-67
2024/02/25 15:12:47;;;;;;;6.60;1.80;;;10.30;83.60;;;;;;9184582;19;20671;-67
2024/02/25 15:15:55;;;;;;;5.18;2.17;;;10.30;83.60;;;;;;9183142;19;20018;-67
2024/02/25 15:19:02;;;;;;;4.90;1.55;;;10.30;83.50;;;;;;9184272;19;20026;-67
2024/02/25 15:22:08;;;;;;;4.03;1.75;;;10.30;83.50;;;;;;9184996;19;21020;-67
2024/02/25 15:25:18;;;;;;;5.93;2.38;;;10.30;83.50;;;;;;9183361;19;20039;-67
2024/02/25 15:28:24;;;;;;;2.47;2.10;;;10.30;83.40;;;;;;9185034;19;20475;-69
2024/02/25 15:31:33;;;;;;;3.22;1.95;;;10.30;83.50;;;;;;9184427;19;20019;-68
2024/02/25 15:34:39;;;;;;;2.78;1.98;;;10.30;83.50;;;;;;9183508;19;20543;-67
2024/02/25 15:37:47;;;;;;;3.60;2.53;;;10.30;83.40;;;;;;9182332;19;20514;-66
2024/02/25 15:40:55;;;;;;;3.47;1.95;;;10.30;83.40;;;;;;9177129;19;20014;-67
2024/02/25 15:44:03;;;;;;;2.72;1.85;;;10.30;83.30;;;;;;9183945;19;20383;-67
2024/02/25 15:47:10;;;;;;;6.05;1.55;;;10.30;83.40;;;;;;9183026;19;20019;-68
2024/02/25 15:50:19;;;;;;;1.40;1.30;;;10.30;83.40;;;;;;9184864;19;20029;-67
2024/02/25 15:53:27;;;;;;;1.77;1.30;;;10.30;83.40;;;;;;9185708;19;20014;-67
2024/02/25 15:56:38;;;;;;;3.60;1.60;;;10.30;83.40;;;;;;9184120;19;20015;-67
2024/02/25 15:59:44;;;;;;;1.52;1.13;;;10.30;83.40;;;;;;9183284;19;20015;-67
2024/02/25 16:02:51;;;;;;;3.38;1.60;;;10.30;83.40;;;;;;9180888;19;20018;-67
2024/02/25 16:05:57;;;;;;;3.05;1.25;;;10.20;83.30;;;;;;9182345;19;20016;-67
2024/02/25 16:09:08;;;;;;;3.47;1.50;;;10.20;83.20;;;;;;9182135;19;20018;-67
2024/02/25 16:12:17;;;;;;;4.10;1.88;;;10.20;83.10;;;;;;9183000;19;20015;-67
2024/02/25 16:15:25;;;;;;;6.03;1.90;;;10.20;83.00;;;;;;9182133;19;20023;-67
2024/02/25 16:18:30;;;;;;;3.03;1.55;;;10.20;83.00;;;;;;9181003;19;20446;-67
2024/02/25 16:21:38;;;;;;;5.05;1.75;;;10.10;83.00;;;;;;9179799;19;20022;-69
2024/02/25 16:24:44;;;;;;;4.05;1.35;;;10.00;82.90;;;;;;9182624;19;20010;-68
2024/02/25 16:27:54;;;;;;;2.83;1.88;;;10.00;82.80;;;;;;9181582;19;20106;-68
2024/02/25 16:31:00;;;;;;;7.60;2.33;;;10.00;82.80;;;;;;9181925;19;20014;-69
2024/02/25 16:34:08;;;;;;;3.30;1.75;;;9.90;82.80;;;;;;9182706;19;20474;-68
2024/02/25 16:37:16;;;;;;;6.53;2.30;;;9.90;82.90;;;;;;9180003;19;20010;-69
2024/02/25 16:40:24;;;;;;;3.35;2.28;;;9.80;83.20;;;;;;9173274;19;20015;-68
2024/02/25 16:43:32;;;;;;;7.13;2.53;;;9.80;82.90;;;;;;9176646;19;20026;-68
2024/02/25 16:46:40;;;;;;;7.63;2.85;;;9.80;82.90;;;;;;9179359;19;20010;-68
2024/02/25 16:49:45;;;;;;;4.03;2.08;;;9.70;82.90;;;;;;9168314;19;20022;-68
2024/02/25 16:52:54;;;;;;;4.47;1.92;;;9.70;82.90;;;;;;9175372;19;20006;-67
2024/02/25 16:56:00;;;;;;;2.78;1.88;;;9.60;82.90;;;;;;9178092;19;20089;-67
2024/02/25 16:59:10;;;;;;;3.22;1.92;;;9.60;82.90;;;;;;9175148;19;20347;-67
2024/02/25 17:02:18;;;;;;;3.03;2.00;;;9.50;82.90;;;;;;9176084;19;20018;-67
2024/02/25 17:05:26;;;;;;;2.60;1.77;;;9.50;82.90;;;;;;9174478;19;20511;-67
2024/02/25 17:08:31;;;;;;;7.10;2.13;;;9.40;82.90;;;;;;9180784;19;20051;-67
2024/02/25 17:11:39;;;;;;;4.15;1.80;;;9.40;82.90;;;;;;9179611;19;20022;-68
2024/02/25 17:14:47;;;;;;;2.47;1.55;;;9.30;82.90;;;;;;9180122;19;20502;-68
2024/02/25 17:17:55;;;;;;;1.85;1.52;;;9.30;83.60;;;;;;9177869;19;20011;-69
2024/02/25 17:21:01;;;;;;;2.38;1.85;;;9.20;82.90;;;;;;9176746;19;20014;-67
2024/02/25 17:24:09;;;;;;;2.75;1.95;;;9.20;82.90;;;;;;9177584;19;20104;-67
2024/02/25 17:27:14;;;;;;;3.63;1.80;;;9.10;82.80;;;;;;9175421;19;20355;-68
2024/02/25 17:30:25;;;;;;;2.42;1.70;;;9.00;82.90;;;;;;9178123;19;20014;-68
2024/02/25 17:33:30;;;;;;;1.88;1.52;;;9.00;82.90;;;;;;9176047;19;20022;-68
2024/02/25 17:36:38;;;;;;;2.53;1.75;;;8.90;82.90;;;;;;9174823;19;20458;-68
2024/02/25 17:40:05;;;;;;;3.53;1.88;;;8.90;83.00;;;;;;9171325;19;20701;-68
2024/02/25 17:43:12;;;;;;;2.72;1.52;;;8.80;82.90;;;;;;9173892;19;20490;-68
2024/02/25 17:46:20;;;;;;;3.38;1.85;;;8.70;82.90;;;;;;9176262;19;20035;-68
2024/02/25 17:49:28;;;;;;;2.38;1.77;;;8.70;83.00;;;;;;9175366;19;20015;-68
2024/02/25 17:52:34;;;;;;;2.45;1.75;;;8.70;83.00;;;;;;9175581;19;20022;-68
2024/02/25 17:55:42;;;;;;;2.75;1.70;;;8.60;83.00;;;;;;9176028;19;20019;-68
2024/02/25 17:58:49;;;;;;;3.75;1.70;;;8.60;83.00;;;;;;9177860;19;20046;-68
2024/02/25 18:01:59;;;;;;;2.70;1.98;;;8.50;83.00;;;;;;9176799;19;20764;-68
2024/02/25 18:05:07;;;;;;;3.28;1.65;;;8.50;83.10;;;;;;9178722;19;20011;-68
2024/02/25 18:08:14;;;;;;;4.40;1.50;;;8.50;83.10;;;;;;9177501;19;20022;-68
2024/02/25 18:11:20;;;;;;;3.53;1.55;;;8.40;83.00;;;;;;9175478;19;20010;-68
2024/02/25 18:14:28;;;;;;;1.63;1.48;;;8.40;83.10;;;;;;9175132;19;20026;-67
2024/02/25 18:17:36;;;;;;;1.48;1.20;;;8.40;83.10;;;;;;9175390;19;20023;-67
2024/02/25 18:20:43;;;;;;;1.98;1.55;;;8.30;83.10;;;;;;9173816;19;20014;-67
2024/02/25 18:23:50;;;;;;;2.22;1.65;;;8.30;83.20;;;;;;9175703;19;20054;-67
2024/02/25 18:26:58;;;;;;;6.43;1.60;;;8.30;83.20;;;;;;9174460;19;20014;-68
2024/02/25 18:30:05;;;;;;;3.92;2.00;;;8.20;83.10;;;;;;9172610;19;20521;-68
2024/02/25 18:33:16;;;;;;;2.72;1.85;;;8.20;83.20;;;;;;9175377;19;20015;-67